createdAt,value
2023-04-25T00:02:01.004Z,101366.38
2023-04-25T00:04:07.748Z,101370.72
2023-04-25T00:06:12.994Z,101370.81
2023-04-25T00:08:20.727Z,101372.66
2023-04-25T00:10:26.138Z,101369.22
2023-04-25T00:12:31.270Z,101372.78
2023-04-25T00:14:39.276Z,101373.72
2023-04-25T00:16:45.426Z,101376.41
2023-04-25T00:18:52.649Z,101377.28
2023-04-25T00:20:57.920Z,101379.91
2023-04-25T00:23:03.018Z,101385.16
2023-04-25T00:25:11.715Z,101377.34
2023-04-25T00:27:18.308Z,101374.75
2023-04-25T00:29:23.324Z,101373.97
2023-04-25T00:31:28.698Z,101377.47
2023-04-25T00:33:33.620Z,101378.38
2023-04-25T00:35:38.883Z,101378.41
2023-04-25T00:37:43.959Z,101373.22
2023-04-25T00:39:48.970Z,101379.34
2023-04-25T00:41:58.123Z,101379.38
2023-04-25T00:44:05.396Z,101379.47
2023-04-25T00:46:10.353Z,101377.72
2023-04-25T00:48:20.880Z,101376.81
2023-04-25T00:50:33.998Z,101383.75
2023-04-25T00:52:51.026Z,101395.91
2023-04-25T00:55:02.124Z,101397.66
2023-04-25T00:57:13.297Z,101389.84
2023-04-25T00:59:29.729Z,101395.88
2023-04-25T01:01:38.822Z,101397.59
2023-04-25T01:03:44.913Z,101400.19
2023-04-25T01:05:54.854Z,101404.47
2023-04-25T01:08:04.538Z,101401.84
2023-04-25T01:10:24.465Z,101411.38
2023-04-25T01:12:39.196Z,101402.63
2023-04-25T01:14:48.768Z,101401.81
2023-04-25T01:17:02.215Z,101400.06
2023-04-25T01:19:13.682Z,101400.09
2023-04-25T01:21:32.208Z,101402.72
2023-04-25T01:23:39.527Z,101410.63
2023-04-25T01:25:44.846Z,101403.66
2023-04-25T01:27:50.344Z,101406.22
2023-04-25T01:29:55.720Z,101411.50
2023-04-25T01:32:02.242Z,101415.88
2023-04-25T01:34:07.366Z,101414.09
2023-04-25T01:36:13.031Z,101415.81
2023-04-25T01:38:20.592Z,101415.84
2023-04-25T01:40:26.273Z,101408.94
2023-04-25T01:42:31.543Z,101414.09
2023-04-25T01:44:36.683Z,101412.41
2023-04-25T01:46:41.730Z,101415.91
2023-04-25T01:48:46.780Z,101414.16
2023-04-25T01:50:52.555Z,101414.19
2023-04-25T01:52:58.436Z,101421.16
2023-04-25T01:55:07.084Z,101424.63
2023-04-25T01:57:11.936Z,101423.75
2023-04-25T01:59:16.891Z,101414.22
2023-04-25T02:01:24.838Z,101412.47
2023-04-25T02:03:31.197Z,101429.00
2023-04-25T02:05:39.683Z,101423.78
2023-04-25T02:07:44.629Z,101421.16
2023-04-25T02:09:49.704Z,101422.91
2023-04-25T02:11:57.246Z,101425.47
2023-04-25T02:14:03.390Z,101421.16
2023-04-25T02:16:09.423Z,101427.19
2023-04-25T02:18:14.591Z,101427.19
2023-04-25T02:20:21.113Z,101430.63
2023-04-25T02:22:25.995Z,101446.09
2023-04-25T02:24:31.253Z,101453.03
2023-04-25T02:26:37.939Z,101434.75
2023-04-25T02:28:45.676Z,101437.41
2023-04-25T02:30:50.618Z,101429.59
2023-04-25T02:32:55.676Z,101431.34
2023-04-25T02:35:04.994Z,101429.63
2023-04-25T02:37:09.920Z,101431.41
2023-04-25T02:39:14.854Z,101438.31
2023-04-25T02:41:19.860Z,101436.59
2023-04-25T02:43:24.764Z,101435.72
2023-04-25T02:45:32.207Z,101432.22
2023-04-25T02:47:38.423Z,101433.97
2023-04-25T02:49:43.430Z,101438.28
2023-04-25T02:51:50.456Z,101436.56
2023-04-25T02:53:56.288Z,101427.91
2023-04-25T02:56:06.197Z,101433.97
2023-04-25T02:58:14.918Z,101437.47
2023-04-25T03:00:25.630Z,101432.19
2023-04-25T03:02:36.919Z,101431.31
2023-04-25T03:04:42.146Z,101437.28
2023-04-25T03:06:47.631Z,101426.78
2023-04-25T03:08:54.402Z,101431.94
2023-04-25T03:10:59.703Z,101433.66
2023-04-25T03:13:04.593Z,101430.19
2023-04-25T03:15:12.043Z,101430.19
2023-04-25T03:17:18.635Z,101428.44
2023-04-25T03:19:26.628Z,101428.41
2023-04-25T03:21:33.276Z,101439.72
2023-04-25T03:23:39.924Z,101440.59
2023-04-25T03:25:47.034Z,101437.13
2023-04-25T03:27:54.214Z,101434.53
2023-04-25T03:30:03.736Z,101435.41
2023-04-25T03:32:09.658Z,101441.53
2023-04-25T03:34:15.924Z,101434.53
2023-04-25T03:36:25.931Z,101437.13
2023-04-25T03:38:33.144Z,101443.13
2023-04-25T03:40:38.720Z,101443.97
2023-04-25T03:42:45.140Z,101440.47
2023-04-25T03:44:51.178Z,101446.56
2023-04-25T03:46:59.866Z,101456.09
2023-04-25T03:49:06.806Z,101453.44
2023-04-25T03:51:12.137Z,101452.59
2023-04-25T03:53:24.952Z,101451.72
2023-04-25T03:55:31.889Z,101448.25
2023-04-25T03:57:39.869Z,101448.22
2023-04-25T03:59:48.326Z,101457.81
2023-04-25T04:01:55.326Z,101460.41
2023-04-25T04:04:01.047Z,101460.38
2023-04-25T04:06:13.102Z,101467.31
2023-04-25T04:08:27.395Z,101468.19
2023-04-25T04:10:36.906Z,101467.31
2023-04-25T04:12:48.047Z,101472.50
2023-04-25T04:14:55.326Z,101474.31
2023-04-25T04:17:02.078Z,101475.19
2023-04-25T04:19:13.656Z,101465.63
2023-04-25T04:21:29.498Z,101477.81
2023-04-25T04:23:40.021Z,101471.72
2023-04-25T04:25:51.177Z,101475.19
2023-04-25T04:28:15.323Z,101471.72
2023-04-25T04:30:28.244Z,101474.34
2023-04-25T04:32:41.179Z,101473.44
2023-04-25T04:37:20.249Z,101477.88
2023-04-25T04:39:31.718Z,101482.19
2023-04-25T04:41:48.789Z,101485.69
2023-04-25T04:44:02.469Z,101478.78
2023-04-25T04:46:07.588Z,101478.78
2023-04-25T04:48:15.468Z,101479.59
2023-04-25T04:50:21.159Z,101497.78
2023-04-25T04:52:26.072Z,101491.69
2023-04-25T04:54:33.837Z,101500.41
2023-04-25T04:56:38.596Z,101497.69
2023-04-25T04:58:43.526Z,101509.84
2023-04-25T05:00:50.278Z,101515.91
2023-04-25T05:02:55.759Z,101508.09
2023-04-25T05:05:00.797Z,101515.03
2023-04-25T05:07:05.708Z,101522.84
2023-04-25T05:09:10.536Z,101523.72
2023-04-25T05:11:19.336Z,101522.88
2023-04-25T05:13:24.550Z,101530.66
2023-04-25T05:15:29.529Z,101528.06
2023-04-25T05:17:34.411Z,101529.84
2023-04-25T05:19:40.605Z,101533.34
2023-04-25T05:21:45.646Z,101541.97
2023-04-25T05:23:51.046Z,101548.88
2023-04-25T05:25:56.283Z,101556.66
2023-04-25T05:28:03.836Z,101555.88
2023-04-25T05:30:10.276Z,101562.00
2023-04-25T05:32:15.376Z,101562.91
2023-04-25T05:34:22.801Z,101562.03
2023-04-25T05:36:34.683Z,101568.16
2023-04-25T05:38:50.159Z,101575.03
2023-04-25T05:40:58.049Z,101574.16
2023-04-25T05:43:05.792Z,101582.94
2023-04-25T05:45:15.783Z,101581.19
2023-04-25T05:47:29.739Z,101582.91
2023-04-25T05:49:57.658Z,101585.53
2023-04-25T05:55:11.574Z,101589.91
2023-04-25T05:57:42.518Z,101600.19
2023-04-25T06:05:30.994Z,101610.69
2023-04-25T06:08:11.706Z,101611.50
2023-04-25T06:10:20.423Z,101613.25
2023-04-25T06:12:28.580Z,101615.09
2023-04-25T06:14:53.905Z,101611.63
2023-04-25T06:17:07.443Z,101615.97
2023-04-25T06:19:35.035Z,101619.41
2023-04-25T06:21:40.443Z,101620.28
2023-04-25T06:23:45.475Z,101619.41
2023-04-25T06:25:52.316Z,101623.75
2023-04-25T06:27:57.275Z,101627.22
2023-04-25T06:30:03.004Z,101625.47
2023-04-25T06:32:10.749Z,101632.41
2023-04-25T06:34:17.514Z,101632.47
2023-04-25T06:36:26.128Z,101630.72
2023-04-25T06:38:31.164Z,101637.59
2023-04-25T06:40:36.571Z,101634.94
2023-04-25T06:42:46.017Z,101639.22
2023-04-25T06:44:52.367Z,101640.94
2023-04-25T06:46:57.623Z,101633.97
2023-04-25T06:51:52.115Z,101655.56
2023-04-25T06:54:01.873Z,101649.31
2023-04-25T06:56:15.465Z,101646.59
2023-04-25T06:58:27.909Z,101649.91
2023-04-25T07:00:39.416Z,101648.97
2023-04-25T07:02:54.782Z,101648.00
2023-04-25T07:05:05.408Z,101650.66
2023-04-25T07:07:13.892Z,101660.09
2023-04-25T07:09:26.688Z,101653.06
2023-04-25T07:11:31.789Z,101660.03
2023-04-25T07:13:40.997Z,101658.84
2023-04-25T07:15:52.407Z,101651.66
2023-04-25T07:18:10.578Z,101655.03
2023-04-25T07:20:29.284Z,101658.91
2023-04-25T07:22:37.182Z,101653.31
2023-04-25T07:24:42.805Z,101656.25
2023-04-25T07:26:48.160Z,101667.47
2023-04-25T07:28:53.199Z,101672.91
2023-04-25T07:30:59.391Z,101664.28
2023-04-25T07:33:04.925Z,101672.63
2023-04-25T07:35:11.261Z,101670.34
2023-04-25T07:37:26.612Z,101668.03
2023-04-25T07:39:34.942Z,101668.41
2023-04-25T07:41:49.751Z,101674.06
2023-04-25T07:43:54.871Z,101674.47
2023-04-25T07:46:00.645Z,101675.25
2023-04-25T07:48:08.232Z,101668.38
2023-04-25T07:50:22.250Z,101674.28
2023-04-25T07:52:29.919Z,101667.66
2023-04-25T07:54:35.278Z,101669.84
2023-04-25T07:56:52.190Z,101669.34
2023-04-25T07:59:03.798Z,101673.06
2023-04-25T08:01:09.076Z,101668.63
2023-04-25T08:03:14.160Z,101674.41
2023-04-25T08:05:22.984Z,101684.94
2023-04-25T08:07:32.308Z,101686.56
2023-04-25T08:09:38.803Z,101697.16
2023-04-25T08:11:46.770Z,101704.47
2023-04-25T08:13:56.722Z,101712.94
2023-04-25T08:16:20.636Z,101718.59
2023-04-25T08:18:33.261Z,101724.94
2023-04-25T08:20:50.048Z,101725.81
2023-04-25T08:23:01.686Z,101731.00
2023-04-25T08:25:15.217Z,101735.81
2023-04-25T08:27:25.694Z,101737.66
2023-04-25T08:29:50.998Z,101733.50
2023-04-25T08:31:59.989Z,101738.41
2023-04-25T08:34:09.398Z,101740.28
2023-04-25T08:36:52.080Z,101731.50
2023-04-25T08:39:38.651Z,101745.53
2023-04-25T08:42:07.604Z,101758.91
2023-04-25T08:44:28.153Z,101754.47
2023-04-25T08:46:39.962Z,101757.63
2023-04-25T08:48:48.503Z,101766.44
2023-04-25T08:50:55.432Z,101765.25
2023-04-25T08:53:08.800Z,101768.44
2023-04-25T08:55:20.264Z,101772.69
2023-04-25T08:57:26.714Z,101781.88
2023-04-25T08:59:32.544Z,101778.84
2023-04-25T09:01:38.825Z,101778.91
2023-04-25T09:03:52.296Z,101778.00
2023-04-25T09:05:59.436Z,101783.88
2023-04-25T09:08:04.871Z,101790.97
2023-04-25T09:10:10.538Z,101787.41
2023-04-25T09:12:18.633Z,101781.75
2023-04-25T09:14:31.564Z,101797.78
2023-04-25T09:16:38.247Z,101802.00
2023-04-25T09:18:48.342Z,101802.06
2023-04-25T09:21:00.911Z,101813.81
2023-04-25T09:23:08.494Z,101808.59
2023-04-25T09:25:15.817Z,101809.69
2023-04-25T09:27:28.275Z,101811.78
2023-04-25T09:29:34.470Z,101821.28
2023-04-25T09:31:40.186Z,101824.31
2023-04-25T09:33:45.456Z,101818.56
2023-04-25T09:35:56.652Z,101820.94
2023-04-25T09:38:01.639Z,101828.56
2023-04-25T09:40:11.625Z,101832.47
2023-04-25T09:42:20.369Z,101836.84
2023-04-25T09:44:30.255Z,101818.00
2023-04-25T09:46:48.352Z,101826.84
2023-04-25T09:48:55.232Z,101836.91
2023-04-25T09:51:10.664Z,101836.31
2023-04-25T09:53:16.267Z,101830.63
2023-04-25T09:55:24.667Z,101827.31
2023-04-25T09:57:29.900Z,101829.13
2023-04-25T09:59:42.839Z,101832.50
2023-04-25T10:01:48.326Z,101837.75
2023-04-25T10:03:56.214Z,101843.81
2023-04-25T10:06:04.374Z,101858.22
2023-04-25T10:08:11.335Z,101852.09
2023-04-25T10:10:20.372Z,101852.03
2023-04-25T10:12:25.995Z,101853.25
2023-04-25T10:14:31.054Z,101863.66
2023-04-25T10:16:40.091Z,101861.19
2023-04-25T10:18:45.220Z,101859.69
2023-04-25T10:20:51.191Z,101851.66
2023-04-25T10:22:59.710Z,101873.56
2023-04-25T10:25:05.648Z,101879.00
2023-04-25T10:27:11.394Z,101886.31
2023-04-25T10:29:27.190Z,101890.78
2023-04-25T10:31:34.244Z,101884.41
2023-04-25T10:33:44.434Z,101879.13
2023-04-25T10:35:49.475Z,101884.41
2023-04-25T10:38:08.781Z,101887.00
2023-04-25T10:40:14.633Z,101871.91
2023-04-25T10:42:19.626Z,101873.88
2023-04-25T10:44:24.715Z,101867.75
2023-04-25T10:46:43.725Z,101873.69
2023-04-25T10:48:55.468Z,101873.31
2023-04-25T10:51:13.502Z,101873.22
2023-04-25T10:53:23.445Z,101880.28
2023-04-25T10:55:58.974Z,101873.03
2023-04-25T10:58:04.830Z,101868.63
2023-04-25T11:00:19.953Z,101876.09
2023-04-25T11:02:33.881Z,101886.16
2023-04-25T11:04:43.255Z,101883.94
2023-04-25T11:07:06.427Z,101890.63
2023-04-25T11:09:15.933Z,101883.56
2023-04-25T11:11:24.115Z,101880.22
2023-04-25T11:13:33.772Z,101896.97
2023-04-25T11:15:38.715Z,101879.63
2023-04-25T11:17:49.640Z,101889.22
2023-04-25T11:19:58.098Z,101879.34
2023-04-25T11:22:04.804Z,101890.81
2023-04-25T11:24:10.418Z,101884.19
2023-04-25T11:26:18.525Z,101894.13
2023-04-25T11:28:26.232Z,101891.19
2023-04-25T11:30:33.319Z,101891.28
2023-04-25T11:32:38.903Z,101882.94
2023-04-25T11:34:48.686Z,101900.25
2023-04-25T11:36:56.778Z,101898.03
2023-04-25T11:39:01.994Z,101909.50
2023-04-25T11:41:07.120Z,101899.22
2023-04-25T11:43:13.785Z,101910.41
2023-04-25T11:45:22.195Z,101909.66
2023-04-25T11:47:32.637Z,101899.56
2023-04-25T11:49:43.198Z,101903.81
2023-04-25T11:51:49.712Z,101903.03
2023-04-25T11:53:57.267Z,101918.59
2023-04-25T11:56:02.344Z,101910.50
2023-04-25T11:58:09.896Z,101906.69
2023-04-25T12:00:21.483Z,101917.53
2023-04-25T12:02:29.891Z,101915.38
2023-04-25T12:04:36.658Z,101922.47
2023-04-25T12:06:44.142Z,101925.84
2023-04-25T12:09:11.985Z,101920.59
2023-04-25T12:11:24.886Z,101926.00
2023-04-25T12:13:31.235Z,101930.81
2023-04-25T12:15:38.597Z,101932.16
2023-04-25T12:17:43.803Z,101936.09
2023-04-25T12:19:54.832Z,101935.44
2023-04-25T12:21:59.906Z,101934.19
2023-04-25T12:24:19.335Z,101933.13
2023-04-25T12:26:24.566Z,101940.09
2023-04-25T12:28:33.126Z,101939.94
2023-04-25T12:30:56.502Z,101931.38
2023-04-25T12:33:03.336Z,101933.00
2023-04-25T12:35:09.720Z,101940.31
2023-04-25T12:37:15.356Z,101939.66
2023-04-25T12:39:26.386Z,101940.16
2023-04-25T12:41:31.239Z,101946.78
2023-04-25T12:43:36.808Z,101942.97
2023-04-25T12:45:41.942Z,101940.81
2023-04-25T12:47:46.988Z,101953.03
2023-04-25T12:49:55.206Z,101954.31
2023-04-25T12:52:00.222Z,101950.84
2023-04-25T12:54:05.520Z,101954.16
2023-04-25T12:56:13.533Z,101946.81
2023-04-25T12:58:20.532Z,101965.19
2023-04-25T13:00:25.987Z,101957.28
2023-04-25T13:02:31.169Z,101957.44
2023-04-25T13:04:38.198Z,101952.31
2023-04-25T13:06:43.463Z,101956.53
2023-04-25T13:08:48.578Z,101944.38
2023-04-25T13:10:53.403Z,101950.59
2023-04-25T13:13:02.298Z,101950.34
2023-04-25T13:15:08.729Z,101955.31
2023-04-25T13:17:13.632Z,101955.63
2023-04-25T13:19:21.321Z,101960.31
2023-04-25T13:21:26.817Z,101962.13
2023-04-25T13:23:33.310Z,101963.06
2023-04-25T13:25:38.598Z,101961.78
2023-04-25T13:27:45.426Z,101957.88
2023-04-25T13:29:52.926Z,101965.66
2023-04-25T13:31:57.868Z,101965.75
2023-04-25T13:34:02.789Z,101961.69
2023-04-25T13:36:08.077Z,101963.59
2023-04-25T13:38:13.749Z,101963.66
2023-04-25T13:40:22.878Z,101972.53
2023-04-25T13:42:29.760Z,101968.00
2023-04-25T13:44:34.672Z,101982.69
2023-04-25T13:46:47.052Z,101973.53
2023-04-25T13:48:57.719Z,101977.75
2023-04-25T13:51:05.234Z,101980.53
2023-04-25T13:53:10.079Z,101973.00
2023-04-25T13:55:15.190Z,101988.13
2023-04-25T13:57:20.415Z,101988.50
2023-04-25T13:59:27.982Z,101987.03
2023-04-25T14:01:35.561Z,101992.03
2023-04-25T14:03:43.794Z,101991.81
2023-04-25T14:05:50.193Z,101985.00
2023-04-25T14:07:55.231Z,101981.22
2023-04-25T14:10:00.853Z,101985.59
2023-04-25T14:12:06.067Z,101974.69
2023-04-25T14:14:11.105Z,101979.16
2023-04-25T14:16:16.283Z,101982.75
2023-04-25T14:18:22.125Z,101990.03
2023-04-25T14:20:29.609Z,101986.88
2023-04-25T14:22:34.480Z,101986.47
2023-04-25T14:24:40.356Z,101990.84
2023-04-25T14:26:45.617Z,101981.84
2023-04-25T14:28:50.390Z,101989.59
2023-04-25T14:30:55.297Z,101994.28
2023-04-25T14:33:00.238Z,101987.66
2023-04-25T14:35:05.372Z,101993.13
2023-04-25T14:39:32.129Z,101989.19
2023-04-25T14:41:37.116Z,101994.75
2023-04-25T14:43:43.785Z,101994.59
2023-04-25T14:45:51.409Z,101998.84
2023-04-25T14:47:57.286Z,101998.53
2023-04-25T14:50:03.120Z,101995.75
2023-04-25T14:52:08.763Z,102004.59
2023-04-25T14:54:18.085Z,102007.06
2023-04-25T14:56:23.110Z,102004.72
2023-04-25T14:58:28.312Z,102006.41
2023-04-25T15:00:34.308Z,102007.97
2023-04-25T15:02:40.378Z,102002.25
2023-04-25T15:04:45.725Z,102022.47
2023-04-25T15:06:50.702Z,102027.50
2023-04-25T15:08:55.554Z,102027.59
2023-04-25T15:11:03.989Z,102028.66
2023-04-25T15:13:09.844Z,102018.97
2023-04-25T15:15:22.615Z,102020.84
2023-04-25T15:17:32.294Z,102023.25
2023-04-25T15:19:38.649Z,102021.06
2023-04-25T15:21:43.963Z,102024.56
2023-04-25T15:23:49.641Z,102027.81
2023-04-25T15:25:55.680Z,102030.22
2023-04-25T15:28:04.195Z,102029.44
2023-04-25T15:30:16.408Z,102026.69
2023-04-25T15:32:24.553Z,102026.44
2023-04-25T15:34:29.504Z,102026.66
2023-04-25T15:36:34.485Z,102022.69
2023-04-25T15:38:39.635Z,102028.66
2023-04-25T15:40:44.809Z,102023.31
2023-04-25T15:42:52.574Z,102032.03
2023-04-25T15:45:00.202Z,102029.22
2023-04-25T15:47:05.148Z,102025.50
2023-04-25T15:49:10.215Z,102034.34
2023-04-25T15:51:15.193Z,102025.81
2023-04-25T15:53:20.184Z,102035.38
2023-04-25T15:55:28.880Z,102027.91
2023-04-25T15:57:34.022Z,102027.94
2023-04-25T15:59:38.806Z,102039.44
2023-04-25T16:01:46.467Z,102046.19
2023-04-25T16:03:54.923Z,102050.97
2023-04-25T16:06:00.058Z,102043.31
2023-04-25T16:08:05.698Z,102053.75
2023-04-25T16:10:13.744Z,102059.22
2023-04-25T16:12:21.794Z,102061.81
2023-04-25T16:14:26.931Z,102066.47
2023-04-25T16:16:34.908Z,102061.19
2023-04-25T16:18:43.624Z,102064.66
2023-04-25T16:20:49.667Z,102071.78
2023-04-25T16:22:54.560Z,102063.06
2023-04-25T16:24:59.689Z,102063.03
2023-04-25T16:27:04.752Z,102060.19
2023-04-25T16:29:10.580Z,102065.19
2023-04-25T16:31:16.860Z,102066.56
2023-04-25T16:33:23.418Z,102068.63
2023-04-25T16:35:32.753Z,102064.31
2023-04-25T16:37:38.169Z,102071.34
2023-04-25T16:39:43.598Z,102068.75
2023-04-25T16:41:49.469Z,102067.19
2023-04-25T16:43:54.804Z,102068.81
2023-04-25T16:45:59.860Z,102069.03
2023-04-25T16:48:04.829Z,102063.91
2023-04-25T16:50:13.634Z,102064.66
2023-04-25T16:52:24.058Z,102071.78
2023-04-25T16:54:30.095Z,102064.66
2023-04-25T16:56:35.481Z,102070.91
2023-04-25T16:58:44.326Z,102061.34
2023-04-25T17:00:50.168Z,102069.09
2023-04-25T17:02:55.562Z,102069.94
2023-04-25T17:05:02.182Z,102073.66
2023-04-25T17:07:07.475Z,102072.84
2023-04-25T17:09:19.026Z,102071.97
2023-04-25T17:11:24.406Z,102084.31
2023-04-25T17:13:31.849Z,102081.81
2023-04-25T17:15:38.079Z,102093.28
2023-04-25T17:17:43.855Z,102084.59
2023-04-25T17:19:50.393Z,102088.09
2023-04-25T17:21:55.440Z,102097.69
2023-04-25T17:24:01.136Z,102090.81
2023-04-25T17:26:09.942Z,102093.41
2023-04-25T17:28:15.843Z,102090.69
2023-04-25T17:30:23.943Z,102087.41
2023-04-25T17:32:30.603Z,102097.91
2023-04-25T17:34:37.887Z,102100.59
2023-04-25T17:36:44.035Z,102097.06
2023-04-25T17:38:52.918Z,102097.06
2023-04-25T17:40:58.836Z,102094.50
2023-04-25T17:43:06.601Z,102096.25
2023-04-25T17:45:13.595Z,102087.56
2023-04-25T17:47:19.494Z,102090.19
2023-04-25T17:49:24.577Z,102091.91
2023-04-25T17:51:29.589Z,102096.31
2023-04-25T17:53:34.411Z,102099.78
2023-04-25T17:55:41.948Z,102105.84
2023-04-25T17:57:49.285Z,102105.03
2023-04-25T17:59:59.134Z,102105.06
2023-04-25T18:02:04.248Z,102107.69
2023-04-25T18:04:09.936Z,102112.94
2023-04-25T18:06:16.034Z,102112.97
2023-04-25T18:08:22.460Z,102109.47
2023-04-25T18:10:27.439Z,102111.25
2023-04-25T18:12:33.580Z,102103.38
2023-04-25T18:14:38.583Z,102109.47
2023-04-25T18:16:49.848Z,102110.38
2023-04-25T18:18:55.844Z,102114.72
2023-04-25T18:21:01.385Z,102113.91
2023-04-25T18:23:06.948Z,102115.66
2023-04-25T18:25:14.495Z,102113.91
2023-04-25T18:27:26.809Z,102117.41
2023-04-25T18:29:33.913Z,102110.47
2023-04-25T18:31:39.800Z,102116.56
2023-04-25T18:33:49.477Z,102118.34
2023-04-25T18:35:59.420Z,102119.19
2023-04-25T18:38:05.117Z,102128.75
2023-04-25T18:40:14.247Z,102131.41
2023-04-25T18:42:19.773Z,102131.41
2023-04-25T18:44:24.584Z,102127.91
2023-04-25T18:46:29.996Z,102122.72
2023-04-25T18:48:35.245Z,102119.25
2023-04-25T18:50:44.995Z,102127.09
2023-04-25T18:52:50.002Z,102129.72
2023-04-25T18:54:55.472Z,102131.44
2023-04-25T18:57:01.392Z,102131.41
2023-04-25T18:59:06.964Z,102128.84
2023-04-25T19:01:11.907Z,102124.47
2023-04-25T19:03:17.607Z,102125.34
2023-04-25T19:05:23.685Z,102125.34
2023-04-25T19:07:32.592Z,102124.50
2023-04-25T19:09:37.936Z,102126.25
2023-04-25T19:11:43.196Z,102135.78
2023-04-25T19:13:51.209Z,102139.28
2023-04-25T19:15:57.923Z,102133.19
2023-04-25T19:18:03.065Z,102136.69
2023-04-25T19:20:09.921Z,102143.63
2023-04-25T19:22:14.858Z,102140.16
2023-04-25T19:24:22.882Z,102143.63
2023-04-25T19:26:27.945Z,102148.84
2023-04-25T19:28:33.063Z,102148.81
2023-04-25T19:30:38.184Z,102144.47
2023-04-25T19:32:43.161Z,102151.44
2023-04-25T19:34:48.594Z,102151.44
2023-04-25T19:36:55.908Z,102161.00
2023-04-25T19:39:03.196Z,102157.50
2023-04-25T19:41:10.705Z,102161.00
2023-04-25T19:43:16.838Z,102157.50
2023-04-25T19:45:24.635Z,102160.13
2023-04-25T19:47:30.155Z,102167.03
2023-04-25T19:49:35.172Z,102167.06
2023-04-25T19:51:43.240Z,102166.19
2023-04-25T19:53:48.986Z,102170.50
2023-04-25T19:55:54.663Z,102176.56
2023-04-25T19:58:03.553Z,102175.72
2023-04-25T20:00:12.271Z,102180.06
2023-04-25T20:02:21.749Z,102175.72
2023-04-25T20:04:26.760Z,102173.97
2023-04-25T20:06:32.969Z,102179.19
2023-04-25T20:08:38.684Z,102180.03
2023-04-25T20:10:43.656Z,102169.59
2023-04-25T20:12:49.320Z,102173.94
2023-04-25T20:14:58.709Z,102167.84
2023-04-25T20:17:04.744Z,102172.16
2023-04-25T20:19:09.709Z,102174.78
2023-04-25T20:21:14.814Z,102173.88
2023-04-25T20:23:20.047Z,102172.13
2023-04-25T20:25:25.502Z,102174.72
2023-04-25T20:27:31.013Z,102172.09
2023-04-25T20:29:36.650Z,102171.25
2023-04-25T20:31:44.347Z,102172.94
2023-04-25T20:33:53.603Z,102165.97
2023-04-25T20:35:58.755Z,102184.19
2023-04-25T20:38:03.671Z,102175.47
2023-04-25T20:40:12.093Z,102181.56
2023-04-25T20:42:16.945Z,102171.13
2023-04-25T20:44:23.928Z,102176.31
2023-04-25T20:46:31.909Z,102171.94
2023-04-25T20:48:39.278Z,102171.06
2023-04-25T20:50:44.276Z,102164.97
2023-04-25T20:52:49.895Z,102165.81
2023-04-25T20:54:55.222Z,102170.16
2023-04-25T20:57:00.505Z,102169.25
2023-04-25T20:59:07.919Z,102168.34
2023-04-25T21:01:12.888Z,102172.69
2023-04-25T21:03:21.429Z,102177.00
2023-04-25T21:05:29.190Z,102177.00
2023-04-25T21:07:34.068Z,102176.97
2023-04-25T21:09:38.914Z,102182.22
2023-04-25T21:11:46.025Z,102183.06
2023-04-25T21:13:52.744Z,102183.06
2023-04-25T21:15:57.687Z,102182.19
2023-04-25T21:18:02.631Z,102170.94
2023-04-25T21:20:11.023Z,102170.09
2023-04-25T21:22:18.751Z,102175.34
2023-04-25T21:24:27.531Z,102177.13
2023-04-25T21:26:32.289Z,102183.28
2023-04-25T21:28:37.159Z,102182.47
2023-04-25T21:30:42.698Z,102184.22
2023-04-25T21:32:51.973Z,102185.97
2023-04-25T21:34:57.076Z,102180.78
2023-04-25T21:37:01.995Z,102174.69
2023-04-25T21:39:11.018Z,102172.13
2023-04-25T21:41:15.937Z,102171.28
2023-04-25T21:43:24.652Z,102173.91
2023-04-25T21:45:29.788Z,102178.28
2023-04-25T21:48:00.285Z,102172.22
2023-04-25T21:50:15.482Z,102174.84
2023-04-25T21:52:21.766Z,102179.19
2023-04-25T21:54:37.100Z,102185.28
2023-04-25T21:56:42.913Z,102191.34
2023-04-25T21:58:48.914Z,102186.09
2023-04-25T22:00:53.952Z,102187.00
2023-04-25T22:03:00.450Z,102194.81
2023-04-25T22:05:05.608Z,102190.44
2023-04-25T22:07:10.466Z,102180.00
2023-04-25T22:09:16.549Z,102183.44
2023-04-25T22:11:26.884Z,102188.63
2023-04-25T22:13:33.705Z,102191.22
2023-04-25T22:15:42.198Z,102196.41
2023-04-25T22:20:14.410Z,102198.09
2023-04-25T22:22:28.868Z,102194.59
2023-04-25T22:24:38.650Z,102197.16
2023-04-25T22:27:01.930Z,102205.78
2023-04-25T22:29:20.920Z,102206.66
2023-04-25T22:31:31.257Z,102204.06
2023-04-25T22:33:38.848Z,102199.69
2023-04-25T22:35:47.691Z,102197.94
2023-04-25T22:37:57.151Z,102203.09
2023-04-25T22:40:10.584Z,102205.72
2023-04-25T22:42:31.627Z,102207.47
2023-04-25T22:44:42.498Z,102205.69
2023-04-25T22:46:58.922Z,102205.72
2023-04-25T22:49:11.414Z,102203.09
2023-04-25T22:51:33.329Z,102209.19
2023-04-25T22:53:53.511Z,102217.91
2023-04-25T22:56:03.876Z,102219.63
2023-04-25T22:58:25.401Z,102216.19
2023-04-25T23:00:36.683Z,102210.13
2023-04-25T23:02:50.411Z,102215.38
2023-04-25T23:05:00.394Z,102212.78
2023-04-25T23:07:13.868Z,102199.75
2023-04-25T23:09:20.761Z,102200.63
2023-04-25T23:11:27.139Z,102203.22
2023-04-25T23:13:41.602Z,102204.09
2023-04-25T23:15:58.402Z,102198.00
2023-04-25T23:18:09.477Z,102199.69
2023-04-25T23:20:22.671Z,102201.41
2023-04-25T23:22:27.556Z,102201.38
2023-04-25T23:24:43.900Z,102195.25
2023-04-25T23:26:59.748Z,102193.53
2023-04-25T23:29:12.754Z,102196.13
2023-04-25T23:31:32.547Z,102196.97
2023-04-25T23:33:41.489Z,102199.63
2023-04-25T23:35:54.096Z,102197.03
2023-04-25T23:38:06.608Z,102210.88
2023-04-25T23:40:20.271Z,102210.88
2023-04-25T23:42:34.584Z,102205.78
2023-04-25T23:44:55.426Z,102198.91
2023-04-25T23:47:02.306Z,102189.34
2023-04-25T23:49:12.888Z,102192.00
2023-04-25T23:51:21.727Z,102189.38
2023-04-25T23:53:29.552Z,102185.88
2023-04-25T23:55:39.385Z,102189.31
2023-04-25T23:57:49.208Z,102195.34
